sensor_id;sensor_type;location;lat;lon;timestamp;temperature;humidity
1025;DHT22;501;48.214;11.350;2023-04-03T00:00:07;4.20;47.80
1025;DHT22;501;48.214;11.350;2023-04-03T00:02:33;4.20;47.20
1025;DHT22;501;48.214;11.350;2023-04-03T00:04:59;4.20;47.50
1025;DHT22;501;48.214;11.350;2023-04-03T00:07:25;4.10;47.90
1025;DHT22;501;48.214;11.350;2023-04-03T00:09:50;4.10;48.10
1025;DHT22;501;48.214;11.350;2023-04-03T00:12:16;4.10;48.90
1025;DHT22;501;48.214;11.350;2023-04-03T00:14:42;4.10;49.30
1025;DHT22;501;48.214;11.350;2023-04-03T00:17:07;4.10;49.30
1025;DHT22;501;48.214;11.350;2023-04-03T00:19:33;4.10;49.10
1025;DHT22;501;48.214;11.350;2023-04-03T00:21:59;4.20;49.00
1025;DHT22;501;48.214;11.350;2023-04-03T00:24:24;4.20;48.60
1025;DHT22;501;48.214;11.350;2023-04-03T00:26:50;4.20;48.50
1025;DHT22;501;48.214;11.350;2023-04-03T00:29:16;4.20;48.80
1025;DHT22;501;48.214;11.350;2023-04-03T00:31:41;4.20;49.10
1025;DHT22;501;48.214;11.350;2023-04-03T00:34:07;4.20;49.10
1025;DHT22;501;48.214;11.350;2023-04-03T00:36:32;4.20;49.30
1025;DHT22;501;48.214;11.350;2023-04-03T00:38:58;4.20;49.00
1025;DHT22;501;48.214;11.350;2023-04-03T00:41:24;4.20;49.30
1025;DHT22;501;48.214;11.350;2023-04-03T00:43:51;4.30;49.50
1025;DHT22;501;48.214;11.350;2023-04-03T00:46:16;4.20;49.60
1025;DHT22;501;48.214;11.350;2023-04-03T00:48:46;4.20;49.10
1025;DHT22;501;48.214;11.350;2023-04-03T00:51:24;4.20;49.50
1025;DHT22;501;48.214;11.350;2023-04-03T00:54:01;4.20;49.10
1025;DHT22;501;48.214;11.350;2023-04-03T00:56:29;4.20;49.30
1025;DHT22;501;48.214;11.350;2023-04-03T01:01:28;4.20;49.50
1025;DHT22;501;48.214;11.350;2023-04-03T01:03:54;4.20;49.50
1025;DHT22;501;48.214;11.350;2023-04-03T01:06:34;4.10;49.20
1025;DHT22;501;48.214;11.350;2023-04-03T01:09:02;4.10;49.50
1025;DHT22;501;48.214;11.350;2023-04-03T01:11:28;4.10;49.60
1025;DHT22;501;48.214;11.350;2023-04-03T01:13:54;4.10;49.90
1025;DHT22;501;48.214;11.350;2023-04-03T01:16:19;4.10;49.80
1025;DHT22;501;48.214;11.350;2023-04-03T01:18:46;4.20;50.10
1025;DHT22;501;48.214;11.350;2023-04-03T01:21:36;4.20;49.70
1025;DHT22;501;48.214;11.350;2023-04-03T01:24:28;4.10;49.90
1025;DHT22;501;48.214;11.350;2023-04-03T01:26:52;4.20;49.50
1025;DHT22;501;48.214;11.350;2023-04-03T01:29:18;4.10;49.40
1025;DHT22;501;48.214;11.350;2023-04-03T01:31:52;4.10;49.30
1025;DHT22;501;48.214;11.350;2023-04-03T01:34:17;4.10;48.90
1025;DHT22;501;48.214;11.350;2023-04-03T01:36:43;4.10;48.50
1025;DHT22;501;48.214;11.350;2023-04-03T01:39:09;4.00;49.30
1025;DHT22;501;48.214;11.350;2023-04-03T01:41:35;4.00;49.60
1025;DHT22;501;48.214;11.350;2023-04-03T01:44:01;4.00;49.30
1025;DHT22;501;48.214;11.350;2023-04-03T01:46:26;3.90;49.30
1025;DHT22;501;48.214;11.350;2023-04-03T01:48:52;4.00;49.90
1025;DHT22;501;48.214;11.350;2023-04-03T01:51:18;4.00;50.50
1025;DHT22;501;48.214;11.350;2023-04-03T01:53:43;4.00;50.50
1025;DHT22;501;48.214;11.350;2023-04-03T01:56:09;4.00;50.10
1025;DHT22;501;48.214;11.350;2023-04-03T01:58:35;4.00;50.10
1025;DHT22;501;48.214;11.350;2023-04-03T02:01:01;4.00;50.00
1025;DHT22;501;48.214;11.350;2023-04-03T02:03:27;4.00;50.30
1025;DHT22;501;48.214;11.350;2023-04-03T02:05:53;4.00;49.50
1025;DHT22;501;48.214;11.350;2023-04-03T02:08:18;4.00;49.50
1025;DHT22;501;48.214;11.350;2023-04-03T02:10:47;3.90;49.60
1025;DHT22;501;48.214;11.350;2023-04-03T02:13:13;3.90;49.90
1025;DHT22;501;48.214;11.350;2023-04-03T02:15:39;4.00;49.10
1025;DHT22;501;48.214;11.350;2023-04-03T02:18:05;3.90;49.50
1025;DHT22;501;48.214;11.350;2023-04-03T02:20:31;3.90;49.50
1025;DHT22;501;48.214;11.350;2023-04-03T02:22:56;3.90;49.90
1025;DHT22;501;48.214;11.350;2023-04-03T02:25:22;3.90;49.70
1025;DHT22;501;48.214;11.350;2023-04-03T02:27:47;3.90;49.50
1025;DHT22;501;48.214;11.350;2023-04-03T02:30:13;3.90;49.40
1025;DHT22;501;48.214;11.350;2023-04-03T02:32:40;4.00;48.70
1025;DHT22;501;48.214;11.350;2023-04-03T02:35:08;4.00;49.10
1025;DHT22;501;48.214;11.350;2023-04-03T02:37:34;4.00;48.80
1025;DHT22;501;48.214;11.350;2023-04-03T02:40:00;4.00;48.60
1025;DHT22;501;48.214;11.350;2023-04-03T02:42:25;4.00;48.40
1025;DHT22;501;48.214;11.350;2023-04-03T02:44:51;4.00;48.60
1025;DHT22;501;48.214;11.350;2023-04-03T02:47:17;4.00;48.30
1025;DHT22;501;48.214;11.350;2023-04-03T02:49:42;4.10;48.40
1025;DHT22;501;48.214;11.350;2023-04-03T02:52:10;4.10;47.70
1025;DHT22;501;48.214;11.350;2023-04-03T02:54:36;4.10;47.60
1025;DHT22;501;48.214;11.350;2023-04-03T02:57:01;4.10;47.30
1025;DHT22;501;48.214;11.350;2023-04-03T02:59:27;4.10;47.30
1025;DHT22;501;48.214;11.350;2023-04-03T03:01:53;4.10;47.00
1025;DHT22;501;48.214;11.350;2023-04-03T03:04:19;4.10;46.90
1025;DHT22;501;48.214;11.350;2023-04-03T03:06:44;4.10;46.60
1025;DHT22;501;48.214;11.350;2023-04-03T03:09:11;4.10;46.90
1025;DHT22;501;48.214;11.350;2023-04-03T03:11:38;4.20;46.40
1025;DHT22;501;48.214;11.350;2023-04-03T03:14:04;4.20;46.00
1025;DHT22;501;48.214;11.350;2023-04-03T03:16:30;4.20;45.90
1025;DHT22;501;48.214;11.350;2023-04-03T03:18:56;4.20;46.50
1025;DHT22;501;48.214;11.350;2023-04-03T03:21:22;4.20;46.70
1025;DHT22;501;48.214;11.350;2023-04-03T03:23:47;4.20;46.00
1025;DHT22;501;48.214;11.350;2023-04-03T03:26:13;4.20;45.90
1025;DHT22;501;48.214;11.350;2023-04-03T03:28:39;4.20;45.70
1025;DHT22;501;48.214;11.350;2023-04-03T03:31:07;4.20;45.40
1025;DHT22;501;48.214;11.350;2023-04-03T03:33:32;4.20;45.10
1025;DHT22;501;48.214;11.350;2023-04-03T03:35:58;4.20;45.90
1025;DHT22;501;48.214;11.350;2023-04-03T03:38:24;4.20;46.00
1025;DHT22;501;48.214;11.350;2023-04-03T03:40:51;4.20;45.10
1025;DHT22;501;48.214;11.350;2023-04-03T03:43:17;4.20;45.10
1025;DHT22;501;48.214;11.350;2023-04-03T03:45:43;4.20;45.10
1025;DHT22;501;48.214;11.350;2023-04-03T03:48:09;4.20;45.10
1025;DHT22;501;48.214;11.350;2023-04-03T03:50:35;4.20;45.60
1025;DHT22;501;48.214;11.350;2023-04-03T03:53:00;4.20;45.10
1025;DHT22;501;48.214;11.350;2023-04-03T03:55:26;4.30;45.20
1025;DHT22;501;48.214;11.350;2023-04-03T03:57:52;4.30;45.20
1025;DHT22;501;48.214;11.350;2023-04-03T04:00:18;4.30;45.20
1025;DHT22;501;48.214;11.350;2023-04-03T04:02:44;4.30;45.20
1025;DHT22;501;48.214;11.350;2023-04-03T04:05:10;4.30;45.20
1025;DHT22;501;48.214;11.350;2023-04-03T04:07:35;4.30;45.20
1025;DHT22;501;48.214;11.350;2023-04-03T04:10:01;4.20;45.10
1025;DHT22;501;48.214;11.350;2023-04-03T04:12:27;4.20;45.10
1025;DHT22;501;48.214;11.350;2023-04-03T04:17:29;4.20;45.10
1025;DHT22;501;48.214;11.350;2023-04-03T04:19:54;4.20;45.10
1025;DHT22;501;48.214;11.350;2023-04-03T04:22:20;4.20;45.10
1025;DHT22;501;48.214;11.350;2023-04-03T04:24:46;4.20;45.10
1025;DHT22;501;48.214;11.350;2023-04-03T04:27:11;4.20;45.10
1025;DHT22;501;48.214;11.350;2023-04-03T04:29:37;4.20;45.60
1025;DHT22;501;48.214;11.350;2023-04-03T04:32:03;4.10;45.00
1025;DHT22;501;48.214;11.350;2023-04-03T04:34:29;4.10;45.00
1025;DHT22;501;48.214;11.350;2023-04-03T04:36:55;4.10;45.00
1025;DHT22;501;48.214;11.350;2023-04-03T04:39:21;4.20;45.10
1025;DHT22;501;48.214;11.350;2023-04-03T04:41:46;4.20;45.10
1025;DHT22;501;48.214;11.350;2023-04-03T04:44:12;4.20;45.10
1025;DHT22;501;48.214;11.350;2023-04-03T04:46:37;4.20;45.10
1025;DHT22;501;48.214;11.350;2023-04-03T04:49:03;4.10;45.00
1025;DHT22;501;48.214;11.350;2023-04-03T04:51:29;4.10;45.00
1025;DHT22;501;48.214;11.350;2023-04-03T04:53:55;4.10;45.00
1025;DHT22;501;48.214;11.350;2023-04-03T04:56:20;4.00;45.20
1025;DHT22;501;48.214;11.350;2023-04-03T04:58:46;4.10;45.00
1025;DHT22;501;48.214;11.350;2023-04-03T05:01:12;4.10;45.50
1025;DHT22;501;48.214;11.350;2023-04-03T05:03:37;4.10;45.00
1025;DHT22;501;48.214;11.350;2023-04-03T05:06:03;4.10;45.00
1025;DHT22;501;48.214;11.350;2023-04-03T05:08:29;4.00;44.90
1025;DHT22;501;48.214;11.350;2023-04-03T05:10:55;4.00;44.90
1025;DHT22;501;48.214;11.350;2023-04-03T05:13:20;4.00;44.90
1025;DHT22;501;48.214;11.350;2023-04-03T05:15:46;4.00;44.90
1025;DHT22;501;48.214;11.350;2023-04-03T05:18:13;4.00;44.90
1025;DHT22;501;48.214;11.350;2023-04-03T05:20:39;4.00;44.90
1025;DHT22;501;48.214;11.350;2023-04-03T05:23:05;4.00;45.60
1025;DHT22;501;48.214;11.350;2023-04-03T05:25:31;3.90;45.60
1025;DHT22;501;48.214;11.350;2023-04-03T05:27:56;3.90;45.70
1025;DHT22;501;48.214;11.350;2023-04-03T05:30:22;3.90;46.00
1025;DHT22;501;48.214;11.350;2023-04-03T05:32:48;3.90;46.00
1025;DHT22;501;48.214;11.350;2023-04-03T05:35:14;3.90;46.00
1025;DHT22;501;48.214;11.350;2023-04-03T05:37:40;3.90;45.90
1025;DHT22;501;48.214;11.350;2023-04-03T05:40:06;3.90;45.70
1025;DHT22;501;48.214;11.350;2023-04-03T05:42:32;4.00;45.60
1025;DHT22;501;48.214;11.350;2023-04-03T05:44:58;4.00;45.30
1025;DHT22;501;48.214;11.350;2023-04-03T05:47:23;4.00;45.40
1025;DHT22;501;48.214;11.350;2023-04-03T05:49:49;4.00;45.60
1025;DHT22;501;48.214;11.350;2023-04-03T05:52:25;4.00;45.40
1025;DHT22;501;48.214;11.350;2023-04-03T05:54:52;4.10;45.40
1025;DHT22;501;48.214;11.350;2023-04-03T05:57:18;4.10;45.20
1025;DHT22;501;48.214;11.350;2023-04-03T05:59:45;4.10;45.40
1025;DHT22;501;48.214;11.350;2023-04-03T06:02:17;4.10;45.40
1025;DHT22;501;48.214;11.350;2023-04-03T06:04:43;4.10;45.30
1025;DHT22;501;48.214;11.350;2023-04-03T06:07:17;4.20;45.10
1025;DHT22;501;48.214;11.350;2023-04-03T06:09:44;4.20;45.10
1025;DHT22;501;48.214;11.350;2023-04-03T06:12:11;4.20;45.10
1025;DHT22;501;48.214;11.350;2023-04-03T06:14:36;4.20;44.30
1025;DHT22;501;48.214;11.350;2023-04-03T06:17:03;4.20;44.80
1025;DHT22;501;48.214;11.350;2023-04-03T06:19:28;4.20;44.50
1025;DHT22;501;48.214;11.350;2023-04-03T06:21:54;4.20;44.30
1025;DHT22;501;48.214;11.350;2023-04-03T06:24:20;4.20;44.80
1025;DHT22;501;48.214;11.350;2023-04-03T06:26:47;4.20;44.30
1025;DHT22;501;48.214;11.350;2023-04-03T06:29:13;4.20;44.10
1025;DHT22;501;48.214;11.350;2023-04-03T06:31:38;4.30;45.00
1025;DHT22;501;48.214;11.350;2023-04-03T06:34:05;4.30;45.20
1025;DHT22;501;48.214;11.350;2023-04-03T06:36:31;4.30;44.30
1025;DHT22;501;48.214;11.350;2023-04-03T06:38:57;4.40;44.00
1025;DHT22;501;48.214;11.350;2023-04-03T06:41:22;4.40;43.40
1025;DHT22;501;48.214;11.350;2023-04-03T06:43:48;4.40;44.00
1025;DHT22;501;48.214;11.350;2023-04-03T06:46:19;4.40;43.40
1025;DHT22;501;48.214;11.350;2023-04-03T06:48:45;4.40;43.50
1025;DHT22;501;48.214;11.350;2023-04-03T06:51:23;4.40;42.50
1025;DHT22;501;48.214;11.350;2023-04-03T06:53:51;4.40;42.90
1025;DHT22;501;48.214;11.350;2023-04-03T06:56:17;4.30;42.90
1025;DHT22;501;48.214;11.350;2023-04-03T06:58:43;4.30;44.00
1025;DHT22;501;48.214;11.350;2023-04-03T07:01:10;4.40;44.00
1025;DHT22;501;48.214;11.350;2023-04-03T07:03:37;4.40;43.20
1025;DHT22;501;48.214;11.350;2023-04-03T07:06:04;4.40;43.30
1025;DHT22;501;48.214;11.350;2023-04-03T07:08:31;4.40;43.70
1025;DHT22;501;48.214;11.350;2023-04-03T07:10:57;4.40;43.80
1025;DHT22;501;48.214;11.350;2023-04-03T07:13:23;4.50;43.20
1025;DHT22;501;48.214;11.350;2023-04-03T07:15:49;4.50;43.60
1025;DHT22;501;48.214;11.350;2023-04-03T07:18:15;4.60;43.90
1025;DHT22;501;48.214;11.350;2023-04-03T07:20:42;4.60;44.10
1025;DHT22;501;48.214;11.350;2023-04-03T07:23:08;4.70;43.60
1025;DHT22;501;48.214;11.350;2023-04-03T07:25:34;4.70;42.30
1025;DHT22;501;48.214;11.350;2023-04-03T07:28:00;4.80;42.00
1025;DHT22;501;48.214;11.350;2023-04-03T07:30:26;4.70;42.50
1025;DHT22;501;48.214;11.350;2023-04-03T07:32:52;4.80;42.50
1025;DHT22;501;48.214;11.350;2023-04-03T07:35:18;4.80;41.80
1025;DHT22;501;48.214;11.350;2023-04-03T07:37:43;4.90;41.70
1025;DHT22;501;48.214;11.350;2023-04-03T07:40:09;4.90;41.60
1025;DHT22;501;48.214;11.350;2023-04-03T07:42:35;4.90;41.90
1025;DHT22;501;48.214;11.350;2023-04-03T07:45:02;4.90;42.10
1025;DHT22;501;48.214;11.350;2023-04-03T07:47:28;5.00;41.90
1025;DHT22;501;48.214;11.350;2023-04-03T07:49:54;5.00;41.30
1025;DHT22;501;48.214;11.350;2023-04-03T07:52:19;5.00;41.70
1025;DHT22;501;48.214;11.350;2023-04-03T07:54:45;5.00;42.30
1025;DHT22;501;48.214;11.350;2023-04-03T07:57:11;5.00;41.30
1025;DHT22;501;48.214;11.350;2023-04-03T07:59:37;5.10;41.60
1025;DHT22;501;48.214;11.350;2023-04-03T08:02:02;5.10;41.40
1025;DHT22;501;48.214;11.350;2023-04-03T08:04:30;5.10;41.00
1025;DHT22;501;48.214;11.350;2023-04-03T08:06:56;5.20;41.30
1025;DHT22;501;48.214;11.350;2023-04-03T08:09:21;5.20;41.80
1025;DHT22;501;48.214;11.350;2023-04-03T08:11:47;5.20;41.30
1025;DHT22;501;48.214;11.350;2023-04-03T08:14:13;5.30;41.20
1025;DHT22;501;48.214;11.350;2023-04-03T08:16:43;5.40;40.50
1025;DHT22;501;48.214;11.350;2023-04-03T08:19:09;5.40;40.00
1025;DHT22;501;48.214;11.350;2023-04-03T08:21:36;5.40;39.60
1025;DHT22;501;48.214;11.350;2023-04-03T08:24:02;5.50;38.80
1025;DHT22;501;48.214;11.350;2023-04-03T08:26:29;5.50;38.70
1025;DHT22;501;48.214;11.350;2023-04-03T08:28:55;5.60;38.70
1025;DHT22;501;48.214;11.350;2023-04-03T08:31:20;5.50;38.40
1025;DHT22;501;48.214;11.350;2023-04-03T08:33:47;5.50;39.60
1025;DHT22;501;48.214;11.350;2023-04-03T08:36:22;5.60;39.10
1025;DHT22;501;48.214;11.350;2023-04-03T08:38:49;5.70;39.50
1025;DHT22;501;48.214;11.350;2023-04-03T08:44:17;5.70;38.50
1025;DHT22;501;48.214;11.350;2023-04-03T08:49:33;5.80;37.70
1025;DHT22;501;48.214;11.350;2023-04-03T08:52:10;5.90;38.50
1025;DHT22;501;48.214;11.350;2023-04-03T08:54:55;5.90;38.30
1025;DHT22;501;48.214;11.350;2023-04-03T08:57:33;5.90;37.20
1025;DHT22;501;48.214;11.350;2023-04-03T09:00:05;5.90;37.90
1025;DHT22;501;48.214;11.350;2023-04-03T09:02:39;5.90;37.70
1025;DHT22;501;48.214;11.350;2023-04-03T09:05:14;6.00;37.80
1025;DHT22;501;48.214;11.350;2023-04-03T09:07:44;6.00;37.40
1025;DHT22;501;48.214;11.350;2023-04-03T09:10:13;5.90;37.70
1025;DHT22;501;48.214;11.350;2023-04-03T09:12:44;6.00;36.50
1025;DHT22;501;48.214;11.350;2023-04-03T09:15:21;6.00;36.80
1025;DHT22;501;48.214;11.350;2023-04-03T09:17:57;6.10;36.60
1025;DHT22;501;48.214;11.350;2023-04-03T09:20:41;6.00;35.70
1025;DHT22;501;48.214;11.350;2023-04-03T09:25:43;6.00;35.30
1025;DHT22;501;48.214;11.350;2023-04-03T09:28:09;6.00;36.10
1025;DHT22;501;48.214;11.350;2023-04-03T09:30:36;6.00;35.70
1025;DHT22;501;48.214;11.350;2023-04-03T09:33:03;5.90;35.80
1025;DHT22;501;48.214;11.350;2023-04-03T09:35:31;6.00;36.50
1025;DHT22;501;48.214;11.350;2023-04-03T09:38:00;6.10;35.80
1025;DHT22;501;48.214;11.350;2023-04-03T09:42:53;6.20;35.80
1025;DHT22;501;48.214;11.350;2023-04-03T09:53:38;6.20;34.50
1025;DHT22;501;48.214;11.350;2023-04-03T09:56:25;6.20;35.00
1025;DHT22;501;48.214;11.350;2023-04-03T10:01:31;6.20;34.70
1025;DHT22;501;48.214;11.350;2023-04-03T10:04:15;6.20;34.60
1025;DHT22;501;48.214;11.350;2023-04-03T10:06:49;6.10;34.10
1025;DHT22;501;48.214;11.350;2023-04-03T10:09:30;6.00;34.40
1025;DHT22;501;48.214;11.350;2023-04-03T10:12:10;6.00;35.20
1025;DHT22;501;48.214;11.350;2023-04-03T10:14:39;6.00;36.30
1025;DHT22;501;48.214;11.350;2023-04-03T10:23:02;6.10;35.00
1025;DHT22;501;48.214;11.350;2023-04-03T10:36:36;6.20;34.60
1025;DHT22;501;48.214;11.350;2023-04-03T10:39:34;6.10;34.70
1025;DHT22;501;48.214;11.350;2023-04-03T10:42:22;6.00;35.90
1025;DHT22;501;48.214;11.350;2023-04-03T10:45:18;5.80;36.50
1025;DHT22;501;48.214;11.350;2023-04-03T10:55:58;5.60;36.80
1025;DHT22;501;48.214;11.350;2023-04-03T10:58:32;5.60;36.00
1025;DHT22;501;48.214;11.350;2023-04-03T11:01:06;5.60;35.20
1025;DHT22;501;48.214;11.350;2023-04-03T11:03:41;5.60;35.20
1025;DHT22;501;48.214;11.350;2023-04-03T11:06:11;5.60;35.20
1025;DHT22;501;48.214;11.350;2023-04-03T11:08:57;5.60;34.50
1025;DHT22;501;48.214;11.350;2023-04-03T11:11:29;5.50;35.20
1025;DHT22;501;48.214;11.350;2023-04-03T11:14:08;5.60;35.00
1025;DHT22;501;48.214;11.350;2023-04-03T11:16:49;5.60;35.30
1025;DHT22;501;48.214;11.350;2023-04-03T11:19:20;5.60;34.40
1025;DHT22;501;48.214;11.350;2023-04-03T11:22:16;5.70;33.30
1025;DHT22;501;48.214;11.350;2023-04-03T11:24:55;5.70;33.40
1025;DHT22;501;48.214;11.350;2023-04-03T11:27:23;5.80;32.70
1025;DHT22;501;48.214;11.350;2023-04-03T11:29:50;5.90;32.10
1025;DHT22;501;48.214;11.350;2023-04-03T11:32:48;6.10;32.80
1025;DHT22;501;48.214;11.350;2023-04-03T11:35:18;6.20;31.90
1025;DHT22;501;48.214;11.350;2023-04-03T11:37:50;6.20;30.20
1025;DHT22;501;48.214;11.350;2023-04-03T11:43:17;6.30;30.60
1025;DHT22;501;48.214;11.350;2023-04-03T11:45:36;6.20;30.50
1025;DHT22;501;48.214;11.350;2023-04-03T11:53:43;6.00;31.50
1025;DHT22;501;48.214;11.350;2023-04-03T11:56:28;5.90;32.10
1025;DHT22;501;48.214;11.350;2023-04-03T12:01:57;5.90;30.40
1025;DHT22;501;48.214;11.350;2023-04-03T12:04:27;5.90;30.00
1025;DHT22;501;48.214;11.350;2023-04-03T12:07:10;6.10;30.00
1025;DHT22;501;48.214;11.350;2023-04-03T12:12:34;6.40;29.30
1025;DHT22;501;48.214;11.350;2023-04-03T12:17:48;6.70;29.20
1025;DHT22;501;48.214;11.350;2023-04-03T12:20:46;6.90;29.60
1025;DHT22;501;48.214;11.350;2023-04-03T12:23:26;7.00;28.20
1025;DHT22;501;48.214;11.350;2023-04-03T12:26:43;7.10;28.10
1025;DHT22;501;48.214;11.350;2023-04-03T12:28:50;7.10;27.80
1025;DHT22;501;48.214;11.350;2023-04-03T12:31:16;7.30;28.00
1025;DHT22;501;48.214;11.350;2023-04-03T12:42:18;8.10;28.00
1025;DHT22;501;48.214;11.350;2023-04-03T12:47:35;8.50;26.40
1025;DHT22;501;48.214;11.350;2023-04-03T12:50:23;8.60;26.10
1025;DHT22;501;48.214;11.350;2023-04-03T12:53:56;8.80;25.50
1025;DHT22;501;48.214;11.350;2023-04-03T12:58:46;8.70;24.10
1025;DHT22;501;48.214;11.350;2023-04-03T13:01:17;8.50;24.30
1025;DHT22;501;48.214;11.350;2023-04-03T13:03:48;8.40;24.50
1025;DHT22;501;48.214;11.350;2023-04-03T13:06:18;8.30;23.30
1025;DHT22;501;48.214;11.350;2023-04-03T13:08:54;8.20;24.10
1025;DHT22;501;48.214;11.350;2023-04-03T13:11:24;8.20;24.40
1025;DHT22;501;48.214;11.350;2023-04-03T13:14:04;8.20;23.20
1025;DHT22;501;48.214;11.350;2023-04-03T13:16:31;8.20;23.70
1025;DHT22;501;48.214;11.350;2023-04-03T13:18:58;8.20;23.30
1025;DHT22;501;48.214;11.350;2023-04-03T13:21:28;8.30;23.30
1025;DHT22;501;48.214;11.350;2023-04-03T13:23:58;8.40;23.40
1025;DHT22;501;48.214;11.350;2023-04-03T13:26:28;8.60;23.50
1025;DHT22;501;48.214;11.350;2023-04-03T13:28:57;8.70;23.60
1025;DHT22;501;48.214;11.350;2023-04-03T13:31:30;8.90;23.70
1025;DHT22;501;48.214;11.350;2023-04-03T13:34:21;8.90;23.50
1025;DHT22;501;48.214;11.350;2023-04-03T13:41:50;9.40;24.00
1025;DHT22;501;48.214;11.350;2023-04-03T13:46:48;10.20;21.90
1025;DHT22;501;48.214;11.350;2023-04-03T13:52:26;10.50;20.30
1025;DHT22;501;48.214;11.350;2023-04-03T13:54:55;10.10;20.00
1025;DHT22;501;48.214;11.350;2023-04-03T13:57:21;9.70;21.20
1025;DHT22;501;48.214;11.350;2023-04-03T13:59:47;9.50;21.90
1025;DHT22;501;48.214;11.350;2023-04-03T14:02:32;9.30;22.20
1025;DHT22;501;48.214;11.350;2023-04-03T14:05:00;9.10;22.70
1025;DHT22;501;48.214;11.350;2023-04-03T14:07:28;8.80;22.30
1025;DHT22;501;48.214;11.350;2023-04-03T14:09:55;8.60;22.00
1025;DHT22;501;48.214;11.350;2023-04-03T14:12:31;8.50;22.20
1025;DHT22;501;48.214;11.350;2023-04-03T14:15:00;8.50;22.00
1025;DHT22;501;48.214;11.350;2023-04-03T14:17:27;8.40;22.80
1025;DHT22;501;48.214;11.350;2023-04-03T14:19:54;8.40;21.00
1025;DHT22;501;48.214;11.350;2023-04-03T14:24:49;8.40;21.60
1025;DHT22;501;48.214;11.350;2023-04-03T14:29:45;8.50;20.60
1025;DHT22;501;48.214;11.350;2023-04-03T14:32:13;8.50;21.50
1025;DHT22;501;48.214;11.350;2023-04-03T14:34:40;8.50;20.90
1025;DHT22;501;48.214;11.350;2023-04-03T14:37:13;8.40;21.80
1025;DHT22;501;48.214;11.350;2023-04-03T14:39:40;8.50;21.00
1025;DHT22;501;48.214;11.350;2023-04-03T14:42:09;8.40;21.20
1025;DHT22;501;48.214;11.350;2023-04-03T14:44:36;8.40;20.20
1025;DHT22;501;48.214;11.350;2023-04-03T14:47:02;8.40;20.40
1025;DHT22;501;48.214;11.350;2023-04-03T14:49:28;8.30;20.80
1025;DHT22;501;48.214;11.350;2023-04-03T14:51:55;8.40;20.30
1025;DHT22;501;48.214;11.350;2023-04-03T14:54:22;8.40;20.30
1025;DHT22;501;48.214;11.350;2023-04-03T14:56:53;8.70;20.20
1025;DHT22;501;48.214;11.350;2023-04-03T14:59:19;9.20;19.30
1025;DHT22;501;48.214;11.350;2023-04-03T15:01:47;9.60;19.50
1025;DHT22;501;48.214;11.350;2023-04-03T15:04:18;10.10;18.00
1025;DHT22;501;48.214;11.350;2023-04-03T15:06:46;10.50;16.60
1025;DHT22;501;48.214;11.350;2023-04-03T15:09:30;10.50;16.60
1025;DHT22;501;48.214;11.350;2023-04-03T15:11:56;10.70;16.00
1025;DHT22;501;48.214;11.350;2023-04-03T15:14:22;11.00;16.90
1025;DHT22;501;48.214;11.350;2023-04-03T15:16:48;11.30;14.40
1025;DHT22;501;48.214;11.350;2023-04-03T15:19:14;11.50;15.80
1025;DHT22;501;48.214;11.350;2023-04-03T15:21:40;11.80;15.30
1025;DHT22;501;48.214;11.350;2023-04-03T15:24:05;12.00;14.50
1025;DHT22;501;48.214;11.350;2023-04-03T15:26:32;12.20;15.00
1025;DHT22;501;48.214;11.350;2023-04-03T15:28:58;12.40;14.40
1025;DHT22;501;48.214;11.350;2023-04-03T15:31:24;12.50;14.90
1025;DHT22;501;48.214;11.350;2023-04-03T15:33:50;12.50;14.00
1025;DHT22;501;48.214;11.350;2023-04-03T15:36:15;12.20;13.40
1025;DHT22;501;48.214;11.350;2023-04-03T15:38:41;12.20;13.20
1025;DHT22;501;48.214;11.350;2023-04-03T15:41:07;12.00;13.10
1025;DHT22;501;48.214;11.350;2023-04-03T15:43:32;11.80;13.40
1025;DHT22;501;48.214;11.350;2023-04-03T15:45:59;11.70;13.40
1025;DHT22;501;48.214;11.350;2023-04-03T15:48:26;11.20;13.70
1025;DHT22;501;48.214;11.350;2023-04-03T15:50:52;10.80;13.80
1025;DHT22;501;48.214;11.350;2023-04-03T15:53:18;10.40;14.70
1025;DHT22;501;48.214;11.350;2023-04-03T15:55:44;10.20;14.60
1025;DHT22;501;48.214;11.350;2023-04-03T15:58:10;10.00;15.10
1025;DHT22;501;48.214;11.350;2023-04-03T16:00:36;9.80;15.60
1025;DHT22;501;48.214;11.350;2023-04-03T16:03:14;9.60;16.50
1025;DHT22;501;48.214;11.350;2023-04-03T16:05:41;9.40;16.00
1025;DHT22;501;48.214;11.350;2023-04-03T16:08:07;9.30;15.70
1025;DHT22;501;48.214;11.350;2023-04-03T16:10:34;9.20;16.40
1025;DHT22;501;48.214;11.350;2023-04-03T16:13:01;9.10;17.00
1025;DHT22;501;48.214;11.350;2023-04-03T16:15:27;9.00;16.60
1025;DHT22;501;48.214;11.350;2023-04-03T16:17:53;9.00;16.70
1025;DHT22;501;48.214;11.350;2023-04-03T16:20:20;9.00;17.90
1025;DHT22;501;48.214;11.350;2023-04-03T16:22:47;9.00;16.30
1025;DHT22;501;48.214;11.350;2023-04-03T16:25:13;9.00;17.00
1025;DHT22;501;48.214;11.350;2023-04-03T16:27:39;8.90;16.10
1025;DHT22;501;48.214;11.350;2023-04-03T16:30:05;8.80;16.80
1025;DHT22;501;48.214;11.350;2023-04-03T16:32:32;8.70;16.10
1025;DHT22;501;48.214;11.350;2023-04-03T16:34:58;8.60;16.30
1025;DHT22;501;48.214;11.350;2023-04-03T16:37:24;8.60;17.00
1025;DHT22;501;48.214;11.350;2023-04-03T16:39:50;8.60;16.00
1025;DHT22;501;48.214;11.350;2023-04-03T16:42:16;8.50;16.10
1025;DHT22;501;48.214;11.350;2023-04-03T16:44:42;8.40;16.10
1025;DHT22;501;48.214;11.350;2023-04-03T16:47:08;8.30;16.10
1025;DHT22;501;48.214;11.350;2023-04-03T16:49:34;8.10;16.90
1025;DHT22;501;48.214;11.350;2023-04-03T16:52:01;7.90;15.70
1025;DHT22;501;48.214;11.350;2023-04-03T16:54:27;7.80;17.30
1025;DHT22;501;48.214;11.350;2023-04-03T16:56:53;7.70;17.40
1025;DHT22;501;48.214;11.350;2023-04-03T16:59:19;7.60;17.40
1025;DHT22;501;48.214;11.350;2023-04-03T17:01:45;7.60;17.80
1025;DHT22;501;48.214;11.350;2023-04-03T17:04:11;7.50;18.10
1025;DHT22;501;48.214;11.350;2023-04-03T17:06:38;7.40;18.20
1025;DHT22;501;48.214;11.350;2023-04-03T17:09:03;7.30;17.70
1025;DHT22;501;48.214;11.350;2023-04-03T17:11:30;7.10;18.50
1025;DHT22;501;48.214;11.350;2023-04-03T17:13:56;7.00;18.10
1025;DHT22;501;48.214;11.350;2023-04-03T17:16:22;6.80;19.00
1025;DHT22;501;48.214;11.350;2023-04-03T17:18:48;6.70;19.50
1025;DHT22;501;48.214;11.350;2023-04-03T17:21:15;6.60;19.60
1025;DHT22;501;48.214;11.350;2023-04-03T17:23:44;6.50;19.50
1025;DHT22;501;48.214;11.350;2023-04-03T17:26:11;6.40;20.00
1025;DHT22;501;48.214;11.350;2023-04-03T17:28:37;6.30;20.20
1025;DHT22;501;48.214;11.350;2023-04-03T17:31:05;6.20;20.40
1025;DHT22;501;48.214;11.350;2023-04-03T17:33:32;6.10;20.70
1025;DHT22;501;48.214;11.350;2023-04-03T17:35:59;6.00;21.60
1025;DHT22;501;48.214;11.350;2023-04-03T17:38:28;5.90;21.30
1025;DHT22;501;48.214;11.350;2023-04-03T17:40:57;5.90;20.70
1025;DHT22;501;48.214;11.350;2023-04-03T17:43:24;5.80;21.70
1025;DHT22;501;48.214;11.350;2023-04-03T17:45:50;5.70;21.60
1025;DHT22;501;48.214;11.350;2023-04-03T17:48:16;5.70;21.70
1025;DHT22;501;48.214;11.350;2023-04-03T17:50:42;5.60;21.50
1025;DHT22;501;48.214;11.350;2023-04-03T17:53:08;5.60;22.10
1025;DHT22;501;48.214;11.350;2023-04-03T17:55:37;5.50;21.50
1025;DHT22;501;48.214;11.350;2023-04-03T17:58:04;5.40;21.80
1025;DHT22;501;48.214;11.350;2023-04-03T18:00:30;5.40;22.30
1025;DHT22;501;48.214;11.350;2023-04-03T18:02:56;5.30;22.60